sensor_id;sensor_type;location;lat;lon;timestamp;temperature;humidity
32173;DHT22;18679;45.190;5.722;2022-12-18T00:01:30;6.20;65.30
32173;DHT22;18679;45.190;5.722;2022-12-18T00:04:31;6.30;65.30
32173;DHT22;18679;45.190;5.722;2022-12-18T00:07:32;6.30;65.10
32173;DHT22;18679;45.190;5.722;2022-12-18T00:10:34;6.40;65.10
32173;DHT22;18679;45.190;5.722;2022-12-18T00:13:35;6.40;64.90
32173;DHT22;18679;45.190;5.722;2022-12-18T00:16:36;6.40;64.80
32173;DHT22;18679;45.190;5.722;2022-12-18T00:19:37;6.50;64.70
32173;DHT22;18679;45.190;5.722;2022-12-18T00:22:38;6.50;64.70
32173;DHT22;18679;45.190;5.722;2022-12-18T00:25:40;6.50;64.50
32173;DHT22;18679;45.190;5.722;2022-12-18T00:28:41;6.50;64.40
32173;DHT22;18679;45.190;5.722;2022-12-18T00:31:43;6.50;64.20
32173;DHT22;18679;45.190;5.722;2022-12-18T00:34:44;6.50;64.20
32173;DHT22;18679;45.190;5.722;2022-12-18T00:37:44;6.40;64.20
32173;DHT22;18679;45.190;5.722;2022-12-18T00:40:48;6.40;64.30
32173;DHT22;18679;45.190;5.722;2022-12-18T00:43:49;6.40;64.30
32173;DHT22;18679;45.190;5.722;2022-12-18T00:46:50;6.40;64.30
32173;DHT22;18679;45.190;5.722;2022-12-18T00:49:50;6.40;64.30
32173;DHT22;18679;45.190;5.722;2022-12-18T00:52:52;6.40;64.30
32173;DHT22;18679;45.190;5.722;2022-12-18T00:55:53;6.40;64.20
32173;DHT22;18679;45.190;5.722;2022-12-18T00:58:54;6.40;64.10
32173;DHT22;18679;45.190;5.722;2022-12-18T01:01:54;6.40;64.30
32173;DHT22;18679;45.190;5.722;2022-12-18T01:04:55;6.30;64.30
32173;DHT22;18679;45.190;5.722;2022-12-18T01:07:56;6.30;64.30
32173;DHT22;18679;45.190;5.722;2022-12-18T01:10:57;6.30;64.30
32173;DHT22;18679;45.190;5.722;2022-12-18T01:13:59;6.30;64.30
32173;DHT22;18679;45.190;5.722;2022-12-18T01:17:00;6.30;64.30
32173;DHT22;18679;45.190;5.722;2022-12-18T01:20:06;6.30;64.30
32173;DHT22;18679;45.190;5.722;2022-12-18T01:23:08;6.30;64.30
32173;DHT22;18679;45.190;5.722;2022-12-18T01:26:11;6.30;64.30
32173;DHT22;18679;45.190;5.722;2022-12-18T01:29:12;6.30;64.30
32173;DHT22;18679;45.190;5.722;2022-12-18T01:32:14;6.20;64.20
32173;DHT22;18679;45.190;5.722;2022-12-18T01:35:15;6.20;64.30
32173;DHT22;18679;45.190;5.722;2022-12-18T01:38:16;6.10;64.30
32173;DHT22;18679;45.190;5.722;2022-12-18T01:41:19;6.10;64.40
32173;DHT22;18679;45.190;5.722;2022-12-18T01:48:01;6.10;64.70
32173;DHT22;18679;45.190;5.722;2022-12-18T01:51:04;6.00;64.60
32173;DHT22;18679;45.190;5.722;2022-12-18T01:54:06;6.00;64.50
32173;DHT22;18679;45.190;5.722;2022-12-18T01:57:07;6.00;64.50
32173;DHT22;18679;45.190;5.722;2022-12-18T02:00:12;5.90;64.50
32173;DHT22;18679;45.190;5.722;2022-12-18T02:03:16;5.90;64.70
32173;DHT22;18679;45.190;5.722;2022-12-18T02:06:57;6.00;64.90
32173;DHT22;18679;45.190;5.722;2022-12-18T02:10:19;6.00;64.80
32173;DHT22;18679;45.190;5.722;2022-12-18T02:13:54;6.00;64.70
32173;DHT22;18679;45.190;5.722;2022-12-18T02:17:13;6.00;64.80
32173;DHT22;18679;45.190;5.722;2022-12-18T02:27:17;6.10;64.70
32173;DHT22;18679;45.190;5.722;2022-12-18T02:30:20;6.10;64.70
32173;DHT22;18679;45.190;5.722;2022-12-18T02:33:24;6.10;64.80
32173;DHT22;18679;45.190;5.722;2022-12-18T02:36:27;6.10;64.80
32173;DHT22;18679;45.190;5.722;2022-12-18T02:39:33;6.10;64.90
32173;DHT22;18679;45.190;5.722;2022-12-18T02:42:37;6.10;64.90
32173;DHT22;18679;45.190;5.722;2022-12-18T02:56:24;6.00;65.40
32173;DHT22;18679;45.190;5.722;2022-12-18T02:59:36;6.00;65.50
32173;DHT22;18679;45.190;5.722;2022-12-18T03:06:08;5.80;65.50
32173;DHT22;18679;45.190;5.722;2022-12-18T03:09:17;6.00;65.80
32173;DHT22;18679;45.190;5.722;2022-12-18T03:12:29;6.00;65.90
32173;DHT22;18679;45.190;5.722;2022-12-18T03:15:36;6.00;65.90
32173;DHT22;18679;45.190;5.722;2022-12-18T03:18:57;5.90;65.60
32173;DHT22;18679;45.190;5.722;2022-12-18T03:22:02;5.90;65.40
32173;DHT22;18679;45.190;5.722;2022-12-18T03:25:14;5.90;65.20
32173;DHT22;18679;45.190;5.722;2022-12-18T03:28:21;5.80;65.10
32173;DHT22;18679;45.190;5.722;2022-12-18T03:31:29;5.80;65.10
32173;DHT22;18679;45.190;5.722;2022-12-18T03:34:35;5.80;64.90
32173;DHT22;18679;45.190;5.722;2022-12-18T03:37:40;5.80;64.60
32173;DHT22;18679;45.190;5.722;2022-12-18T03:41:07;5.70;64.50
32173;DHT22;18679;45.190;5.722;2022-12-18T03:48:13;5.60;64.50
32173;DHT22;18679;45.190;5.722;2022-12-18T03:51:48;5.60;64.70
32173;DHT22;18679;45.190;5.722;2022-12-18T03:54:52;5.60;64.70
32173;DHT22;18679;45.190;5.722;2022-12-18T03:57:54;5.60;64.80
32173;DHT22;18679;45.190;5.722;2022-12-18T04:01:00;5.50;64.70
32173;DHT22;18679;45.190;5.722;2022-12-18T04:04:03;5.60;64.80
32173;DHT22;18679;45.190;5.722;2022-12-18T04:07:07;5.60;64.90
32173;DHT22;18679;45.190;5.722;2022-12-18T04:10:13;5.60;64.80
32173;DHT22;18679;45.190;5.722;2022-12-18T04:13:32;5.60;64.80
32173;DHT22;18679;45.190;5.722;2022-12-18T04:16:35;5.60;64.80
32173;DHT22;18679;45.190;5.722;2022-12-18T04:19:39;5.60;64.70
32173;DHT22;18679;45.190;5.722;2022-12-18T04:22:39;5.70;64.70
32173;DHT22;18679;45.190;5.722;2022-12-18T04:25:40;5.70;64.50
32173;DHT22;18679;45.190;5.722;2022-12-18T04:28:45;5.70;64.50
32173;DHT22;18679;45.190;5.722;2022-12-18T04:31:46;5.70;64.50
32173;DHT22;18679;45.190;5.722;2022-12-18T04:34:48;5.60;64.40
32173;DHT22;18679;45.190;5.722;2022-12-18T04:37:49;5.60;64.40
32173;DHT22;18679;45.190;5.722;2022-12-18T04:40:50;5.60;64.40
32173;DHT22;18679;45.190;5.722;2022-12-18T04:43:58;5.60;64.40
32173;DHT22;18679;45.190;5.722;2022-12-18T04:46:59;5.60;64.40
32173;DHT22;18679;45.190;5.722;2022-12-18T04:50:00;5.60;64.20
32173;DHT22;18679;45.190;5.722;2022-12-18T04:53:01;5.50;64.20
32173;DHT22;18679;45.190;5.722;2022-12-18T04:56:03;5.50;64.30
32173;DHT22;18679;45.190;5.722;2022-12-18T04:59:04;5.40;64.30
32173;DHT22;18679;45.190;5.722;2022-12-18T05:02:05;5.40;64.50
32173;DHT22;18679;45.190;5.722;2022-12-18T05:05:06;5.40;64.50
32173;DHT22;18679;45.190;5.722;2022-12-18T05:08:08;5.30;64.50
32173;DHT22;18679;45.190;5.722;2022-12-18T05:11:11;5.30;64.60
32173;DHT22;18679;45.190;5.722;2022-12-18T05:14:12;5.30;64.70
32173;DHT22;18679;45.190;5.722;2022-12-18T05:17:13;5.30;64.70
32173;DHT22;18679;45.190;5.722;2022-12-18T05:20:14;5.30;64.70
32173;DHT22;18679;45.190;5.722;2022-12-18T05:23:15;5.30;64.70
32173;DHT22;18679;45.190;5.722;2022-12-18T05:26:18;5.20;64.80
32173;DHT22;18679;45.190;5.722;2022-12-18T05:29:19;5.20;64.80
32173;DHT22;18679;45.190;5.722;2022-12-18T05:32:19;5.20;65.00
32173;DHT22;18679;45.190;5.722;2022-12-18T05:35:20;5.20;65.00
32173;DHT22;18679;45.190;5.722;2022-12-18T05:38:23;5.10;65.00
32173;DHT22;18679;45.190;5.722;2022-12-18T05:41:23;5.10;65.20
32173;DHT22;18679;45.190;5.722;2022-12-18T05:44:24;5.10;65.20
32173;DHT22;18679;45.190;5.722;2022-12-18T05:47:27;5.10;65.40
32173;DHT22;18679;45.190;5.722;2022-12-18T05:50:29;5.10;65.40
32173;DHT22;18679;45.190;5.722;2022-12-18T05:53:36;5.10;65.20
32173;DHT22;18679;45.190;5.722;2022-12-18T05:56:37;5.10;65.30
32173;DHT22;18679;45.190;5.722;2022-12-18T05:59:39;5.10;65.40
32173;DHT22;18679;45.190;5.722;2022-12-18T06:02:39;5.00;65.50
32173;DHT22;18679;45.190;5.722;2022-12-18T06:05:42;5.00;65.60
32173;DHT22;18679;45.190;5.722;2022-12-18T06:08:44;4.90;65.80
32173;DHT22;18679;45.190;5.722;2022-12-18T06:11:44;4.90;65.90
32173;DHT22;18679;45.190;5.722;2022-12-18T06:14:45;4.90;66.10
32173;DHT22;18679;45.190;5.722;2022-12-18T06:17:46;4.90;66.20
32173;DHT22;18679;45.190;5.722;2022-12-18T06:20:57;4.80;66.20
32173;DHT22;18679;45.190;5.722;2022-12-18T06:23:59;4.80;66.70
32173;DHT22;18679;45.190;5.722;2022-12-18T06:27:00;4.70;66.40
32173;DHT22;18679;45.190;5.722;2022-12-18T06:30:01;4.70;66.70
32173;DHT22;18679;45.190;5.722;2022-12-18T06:33:03;4.70;67.00
32173;DHT22;18679;45.190;5.722;2022-12-18T06:36:09;4.70;67.10
32173;DHT22;18679;45.190;5.722;2022-12-18T06:39:10;4.60;67.20
32173;DHT22;18679;45.190;5.722;2022-12-18T06:42:11;4.60;67.30
32173;DHT22;18679;45.190;5.722;2022-12-18T06:45:12;4.60;67.40
32173;DHT22;18679;45.190;5.722;2022-12-18T06:48:16;4.70;67.70
32173;DHT22;18679;45.190;5.722;2022-12-18T06:51:22;4.70;67.70
32173;DHT22;18679;45.190;5.722;2022-12-18T06:54:23;4.70;67.70
32173;DHT22;18679;45.190;5.722;2022-12-18T06:57:24;4.70;67.70
32173;DHT22;18679;45.190;5.722;2022-12-18T07:00:25;4.80;67.90
32173;DHT22;18679;45.190;5.722;2022-12-18T07:03:25;4.80;67.80
32173;DHT22;18679;45.190;5.722;2022-12-18T07:06:27;4.80;67.80
32173;DHT22;18679;45.190;5.722;2022-12-18T07:09:27;4.90;67.80
32173;DHT22;18679;45.190;5.722;2022-12-18T07:12:29;4.90;67.90
32173;DHT22;18679;45.190;5.722;2022-12-18T07:15:30;4.90;68.10
32173;DHT22;18679;45.190;5.722;2022-12-18T07:18:31;4.80;68.00
32173;DHT22;18679;45.190;5.722;2022-12-18T07:21:32;4.80;67.90
32173;DHT22;18679;45.190;5.722;2022-12-18T07:24:33;4.80;68.00
32173;DHT22;18679;45.190;5.722;2022-12-18T07:27:35;4.80;68.10
32173;DHT22;18679;45.190;5.722;2022-12-18T07:30:37;4.70;68.10
32173;DHT22;18679;45.190;5.722;2022-12-18T07:33:39;4.70;68.20
32173;DHT22;18679;45.190;5.722;2022-12-18T07:36:40;4.70;68.20
32173;DHT22;18679;45.190;5.722;2022-12-18T07:39:40;4.70;68.40
32173;DHT22;18679;45.190;5.722;2022-12-18T07:42:41;4.70;68.40
32173;DHT22;18679;45.190;5.722;2022-12-18T07:45:43;4.70;68.70
32173;DHT22;18679;45.190;5.722;2022-12-18T07:48:44;4.70;68.40
32173;DHT22;18679;45.190;5.722;2022-12-18T07:51:45;4.80;68.40
32173;DHT22;18679;45.190;5.722;2022-12-18T07:54:49;4.80;68.40
32173;DHT22;18679;45.190;5.722;2022-12-18T07:57:50;4.70;68.40
32173;DHT22;18679;45.190;5.722;2022-12-18T08:00:52;4.80;68.50
32173;DHT22;18679;45.190;5.722;2022-12-18T08:03:53;4.80;68.60
32173;DHT22;18679;45.190;5.722;2022-12-18T08:06:53;4.90;68.50
32173;DHT22;18679;45.190;5.722;2022-12-18T08:09:54;4.90;68.40
32173;DHT22;18679;45.190;5.722;2022-12-18T08:12:55;4.90;68.20
32173;DHT22;18679;45.190;5.722;2022-12-18T08:16:06;5.00;68.00
32173;DHT22;18679;45.190;5.722;2022-12-18T08:19:07;5.00;67.90
32173;DHT22;18679;45.190;5.722;2022-12-18T08:22:08;5.10;67.70
32173;DHT22;18679;45.190;5.722;2022-12-18T08:25:10;5.10;67.50
32173;DHT22;18679;45.190;5.722;2022-12-18T08:28:13;5.10;67.20
32173;DHT22;18679;45.190;5.722;2022-12-18T08:31:13;5.10;67.10
32173;DHT22;18679;45.190;5.722;2022-12-18T08:34:14;5.20;66.90
32173;DHT22;18679;45.190;5.722;2022-12-18T08:37:15;5.20;66.90
32173;DHT22;18679;45.190;5.722;2022-12-18T08:40:16;5.30;67.00
32173;DHT22;18679;45.190;5.722;2022-12-18T08:43:17;5.40;67.10
32173;DHT22;18679;45.190;5.722;2022-12-18T08:46:41;5.50;67.00
32173;DHT22;18679;45.190;5.722;2022-12-18T08:49:42;5.70;66.70
32173;DHT22;18679;45.190;5.722;2022-12-18T08:52:43;5.80;67.00
32173;DHT22;18679;45.190;5.722;2022-12-18T08:55:44;5.80;65.80
32173;DHT22;18679;45.190;5.722;2022-12-18T08:58:45;5.80;65.70
32173;DHT22;18679;45.190;5.722;2022-12-18T09:01:46;5.90;65.90
32173;DHT22;18679;45.190;5.722;2022-12-18T09:04:47;5.90;65.90
32173;DHT22;18679;45.190;5.722;2022-12-18T09:07:50;5.90;66.00
32173;DHT22;18679;45.190;5.722;2022-12-18T09:10:52;6.00;65.90
32173;DHT22;18679;45.190;5.722;2022-12-18T09:13:53;6.00;65.90
32173;DHT22;18679;45.190;5.722;2022-12-18T09:16:55;6.00;66.00
32173;DHT22;18679;45.190;5.722;2022-12-18T09:19:55;5.90;66.00
32173;DHT22;18679;45.190;5.722;2022-12-18T09:22:57;6.00;66.10
32173;DHT22;18679;45.190;5.722;2022-12-18T09:25:59;6.00;66.20
32173;DHT22;18679;45.190;5.722;2022-12-18T09:29:00;6.00;66.30
32173;DHT22;18679;45.190;5.722;2022-12-18T09:32:01;6.10;66.30
32173;DHT22;18679;45.190;5.722;2022-12-18T09:35:02;6.10;66.10
32173;DHT22;18679;45.190;5.722;2022-12-18T09:38:03;6.10;66.00
32173;DHT22;18679;45.190;5.722;2022-12-18T09:44:39;6.20;65.90
32173;DHT22;18679;45.190;5.722;2022-12-18T09:47:43;6.20;66.00
32173;DHT22;18679;45.190;5.722;2022-12-18T09:50:46;6.30;66.00
32173;DHT22;18679;45.190;5.722;2022-12-18T09:54:00;6.40;66.10
32173;DHT22;18679;45.190;5.722;2022-12-18T09:57:04;6.50;66.60
32173;DHT22;18679;45.190;5.722;2022-12-18T10:00:20;6.70;66.40
32173;DHT22;18679;45.190;5.722;2022-12-18T10:03:21;7.10;65.40
32173;DHT22;18679;45.190;5.722;2022-12-18T10:20:10;8.10;62.10
32173;DHT22;18679;45.190;5.722;2022-12-18T10:26:20;8.40;61.50
32173;DHT22;18679;45.190;5.722;2022-12-18T10:29:21;8.50;61.20
32173;DHT22;18679;45.190;5.722;2022-12-18T10:32:29;8.70;60.70
32173;DHT22;18679;45.190;5.722;2022-12-18T10:35:29;8.90;59.90
32173;DHT22;18679;45.190;5.722;2022-12-18T10:38:31;9.00;59.60
32173;DHT22;18679;45.190;5.722;2022-12-18T10:41:32;9.20;59.30
32173;DHT22;18679;45.190;5.722;2022-12-18T10:44:33;9.50;58.60
32173;DHT22;18679;45.190;5.722;2022-12-18T10:47:34;9.80;57.90
32173;DHT22;18679;45.190;5.722;2022-12-18T10:50:37;10.00;57.10
32173;DHT22;18679;45.190;5.722;2022-12-18T10:53:41;10.30;56.80
32173;DHT22;18679;45.190;5.722;2022-12-18T10:56:43;10.50;55.70
32173;DHT22;18679;45.190;5.722;2022-12-18T10:59:53;10.80;55.10
32173;DHT22;18679;45.190;5.722;2022-12-18T11:02:54;10.80;54.60
32173;DHT22;18679;45.190;5.722;2022-12-18T11:09:20;11.40;55.00
32173;DHT22;18679;45.190;5.722;2022-12-18T11:12:22;11.80;53.50
32173;DHT22;18679;45.190;5.722;2022-12-18T11:15:27;12.10;52.50
32173;DHT22;18679;45.190;5.722;2022-12-18T11:18:32;12.40;51.80
32173;DHT22;18679;45.190;5.722;2022-12-18T11:21:41;13.00;50.90
32173;DHT22;18679;45.190;5.722;2022-12-18T11:24:43;13.40;49.40
32173;DHT22;18679;45.190;5.722;2022-12-18T11:31:35;14.30;47.20
32173;DHT22;18679;45.190;5.722;2022-12-18T11:34:36;14.50;45.50
32173;DHT22;18679;45.190;5.722;2022-12-18T11:37:40;14.50;45.40
32173;DHT22;18679;45.190;5.722;2022-12-18T11:40:45;14.20;46.50
32173;DHT22;18679;45.190;5.722;2022-12-18T11:43:52;13.80;47.00
32173;DHT22;18679;45.190;5.722;2022-12-18T11:47:01;13.30;47.20
32173;DHT22;18679;45.190;5.722;2022-12-18T11:50:20;12.90;48.20
32173;DHT22;18679;45.190;5.722;2022-12-18T11:53:25;12.50;48.40
32173;DHT22;18679;45.190;5.722;2022-12-18T11:59:38;11.70;49.40
32173;DHT22;18679;45.190;5.722;2022-12-18T12:16:59;10.60;51.70
32173;DHT22;18679;45.190;5.722;2022-12-18T12:30:18;10.00;54.00
32173;DHT22;18679;45.190;5.722;2022-12-18T12:39:54;9.90;54.00
32173;DHT22;18679;45.190;5.722;2022-12-18T12:42:58;9.90;54.10
32173;DHT22;18679;45.190;5.722;2022-12-18T12:46:18;9.80;54.50
32173;DHT22;18679;45.190;5.722;2022-12-18T12:49:27;9.80;54.70
32173;DHT22;18679;45.190;5.722;2022-12-18T12:52:39;9.80;54.90
32173;DHT22;18679;45.190;5.722;2022-12-18T12:55:41;9.70;55.10
32173;DHT22;18679;45.190;5.722;2022-12-18T13:05:31;9.70;55.30
32173;DHT22;18679;45.190;5.722;2022-12-18T13:08:53;9.70;55.30
32173;DHT22;18679;45.190;5.722;2022-12-18T13:12:04;9.70;55.40
32173;DHT22;18679;45.190;5.722;2022-12-18T13:15:42;9.70;55.40
32173;DHT22;18679;45.190;5.722;2022-12-18T13:18:52;9.70;55.40
32173;DHT22;18679;45.190;5.722;2022-12-18T13:21:55;9.70;55.50
32173;DHT22;18679;45.190;5.722;2022-12-18T13:24:56;9.70;55.50
32173;DHT22;18679;45.190;5.722;2022-12-18T13:31:04;9.70;55.50
32173;DHT22;18679;45.190;5.722;2022-12-18T13:44:10;9.80;55.70
32173;DHT22;18679;45.190;5.722;2022-12-18T13:47:33;9.90;55.60
32173;DHT22;18679;45.190;5.722;2022-12-18T13:50:35;9.90;55.40
32173;DHT22;18679;45.190;5.722;2022-12-18T13:53:46;9.90;55.40
32173;DHT22;18679;45.190;5.722;2022-12-18T13:56:49;9.90;55.60
32173;DHT22;18679;45.190;5.722;2022-12-18T13:59:50;10.00;55.50
32173;DHT22;18679;45.190;5.722;2022-12-18T14:02:51;10.00;55.50
32173;DHT22;18679;45.190;5.722;2022-12-18T14:05:54;10.10;55.50
32173;DHT22;18679;45.190;5.722;2022-12-18T14:08:56;10.10;55.60
32173;DHT22;18679;45.190;5.722;2022-12-18T14:11:57;10.20;55.60
32173;DHT22;18679;45.190;5.722;2022-12-18T14:21:49;10.20;55.60
32173;DHT22;18679;45.190;5.722;2022-12-18T14:25:13;10.20;55.50
32173;DHT22;18679;45.190;5.722;2022-12-18T14:28:15;10.20;55.60
32173;DHT22;18679;45.190;5.722;2022-12-18T14:31:23;10.10;55.60
32173;DHT22;18679;45.190;5.722;2022-12-18T14:34:26;10.10;55.50
32173;DHT22;18679;45.190;5.722;2022-12-18T14:37:27;10.10;55.30
32173;DHT22;18679;45.190;5.722;2022-12-18T14:40:28;10.00;55.40
32173;DHT22;18679;45.190;5.722;2022-12-18T14:43:32;10.00;55.20
32173;DHT22;18679;45.190;5.722;2022-12-18T14:46:39;10.00;55.40
32173;DHT22;18679;45.190;5.722;2022-12-18T14:49:41;10.00;55.40
32173;DHT22;18679;45.190;5.722;2022-12-18T14:52:43;10.00;55.50
32173;DHT22;18679;45.190;5.722;2022-12-18T14:55:46;10.00;55.60
32173;DHT22;18679;45.190;5.722;2022-12-18T14:59:06;9.90;55.70
32173;DHT22;18679;45.190;5.722;2022-12-18T15:02:23;10.00;55.90
32173;DHT22;18679;45.190;5.722;2022-12-18T15:05:26;9.90;56.00
32173;DHT22;18679;45.190;5.722;2022-12-18T15:08:35;9.90;56.20
32173;DHT22;18679;45.190;5.722;2022-12-18T15:14:41;9.90;56.40
32173;DHT22;18679;45.190;5.722;2022-12-18T15:17:42;9.90;56.50
32173;DHT22;18679;45.190;5.722;2022-12-18T15:20:48;9.80;56.50
32173;DHT22;18679;45.190;5.722;2022-12-18T15:23:50;9.80;56.60
32173;DHT22;18679;45.190;5.722;2022-12-18T15:26:52;9.70;56.80
32173;DHT22;18679;45.190;5.722;2022-12-18T15:33:47;9.70;56.90
32173;DHT22;18679;45.190;5.722;2022-12-18T15:37:00;9.60;57.00
32173;DHT22;18679;45.190;5.722;2022-12-18T15:40:01;9.60;57.10
32173;DHT22;18679;45.190;5.722;2022-12-18T15:43:07;9.50;57.20
32173;DHT22;18679;45.190;5.722;2022-12-18T15:46:27;9.50;57.30
32173;DHT22;18679;45.190;5.722;2022-12-18T15:49:28;9.40;57.40
32173;DHT22;18679;45.190;5.722;2022-12-18T15:52:29;9.40;57.40
32173;DHT22;18679;45.190;5.722;2022-12-18T15:55:30;9.40;57.50
32173;DHT22;18679;45.190;5.722;2022-12-18T15:58:50;9.30;57.50
32173;DHT22;18679;45.190;5.722;2022-12-18T16:01:51;9.30;57.70
32173;DHT22;18679;45.190;5.722;2022-12-18T16:04:53;9.30;57.90
32173;DHT22;18679;45.190;5.722;2022-12-18T16:07:54;9.20;57.90
32173;DHT22;18679;45.190;5.722;2022-12-18T16:10:56;9.20;58.10
32173;DHT22;18679;45.190;5.722;2022-12-18T16:13:57;9.20;58.20
32173;DHT22;18679;45.190;5.722;2022-12-18T16:16:59;9.10;58.20
32173;DHT22;18679;45.190;5.722;2022-12-18T16:20:00;9.10;58.30
32173;DHT22;18679;45.190;5.722;2022-12-18T16:23:01;9.10;58.40
32173;DHT22;18679;45.190;5.722;2022-12-18T16:26:02;9.00;58.40
32173;DHT22;18679;45.190;5.722;2022-12-18T16:29:03;9.00;58.50
32173;DHT22;18679;45.190;5.722;2022-12-18T16:32:04;9.00;59.10
32173;DHT22;18679;45.190;5.722;2022-12-18T16:35:05;9.00;58.60
32173;DHT22;18679;45.190;5.722;2022-12-18T16:38:07;9.00;58.60
32173;DHT22;18679;45.190;5.722;2022-12-18T16:41:19;9.00;58.60
32173;DHT22;18679;45.190;5.722;2022-12-18T16:44:34;8.90;58.60
32173;DHT22;18679;45.190;5.722;2022-12-18T16:47:34;8.90;58.70
32173;DHT22;18679;45.190;5.722;2022-12-18T16:50:35;8.90;58.70
32173;DHT22;18679;45.190;5.722;2022-12-18T16:53:36;8.90;58.80
32173;DHT22;18679;45.190;5.722;2022-12-18T16:56:37;8.90;58.80
32173;DHT22;18679;45.190;5.722;2022-12-18T16:59:39;8.90;59.50
32173;DHT22;18679;45.190;5.722;2022-12-18T17:02:40;8.80;58.90
32173;DHT22;18679;45.190;5.722;2022-12-18T17:05:41;8.80;59.00
32173;DHT22;18679;45.190;5.722;2022-12-18T17:08:42;8.80;59.00
32173;DHT22;18679;45.190;5.722;2022-12-18T17:11:43;8.80;59.10
32173;DHT22;18679;45.190;5.722;2022-12-18T17:14:44;8.80;59.30
32173;DHT22;18679;45.190;5.722;2022-12-18T17:17:44;8.80;59.50
32173;DHT22;18679;45.190;5.722;2022-12-18T17:20:45;8.80;59.60
32173;DHT22;18679;45.190;5.722;2022-12-18T17:23:46;8.80;59.60
32173;DHT22;18679;45.190;5.722;2022-12-18T17:26:48;8.80;59.70
32173;DHT22;18679;45.190;5.722;2022-12-18T17:29:49;8.80;59.80
32173;DHT22;18679;45.190;5.722;2022-12-18T17:32:50;8.80;59.80
32173;DHT22;18679;45.190;5.722;2022-12-18T17:35:51;8.80;59.80
32173;DHT22;18679;45.190;5.722;2022-12-18T17:38:54;8.80;59.90
32173;DHT22;18679;45.190;5.722;2022-12-18T17:41:55;8.70;59.90
32173;DHT22;18679;45.190;5.722;2022-12-18T17:44:56;8.70;60.00
32173;DHT22;18679;45.190;5.722;2022-12-18T17:47:57;8.70;60.00
32173;DHT22;18679;45.190;5.722;2022-12-18T17:51:02;8.70;60.00
32173;DHT22;18679;45.190;5.722;2022-12-18T17:54:03;8.70;60.10
32173;DHT22;18679;45.190;5.722;2022-12-18T17:57:05;8.70;60.80
32173;DHT22;18679;45.190;5.722;2022-12-18T18:00:06;8.80;60.40
32173;DHT22;18679;45.190;5.722;2022-12-18T18:03:10;8.70;60.40
32173;DHT22;18679;45.190;5.722;2022-12-18T18:06:11;8.70;60.50
32173;DHT22;18679;45.190;5.722;2022-12-18T18:09:12;8.70;60.40
32173;DHT22;18679;45.190;5.722;2022-12-18T18:12:13;8.70;60.30
32173;DHT22;18679;45.190;5.722;2022-12-18T18:15:33;8.70;60.40
32173;DHT22;18679;45.190;5.722;2022-12-18T18:18:33;8.70;60.40
32173;DHT22;18679;45.190;5.722;2022-12-18T18:21:38;8.60;60.40
32173;DHT22;18679;45.190;5.722;2022-12-18T18:24:40;8.60;60.50
32173;DHT22;18679;45.190;5.722;2022-12-18T18:27:43;8.50;60.60
32173;DHT22;18679;45.190;5.722;2022-12-18T18:30:43;8.50;60.70
32173;DHT22;18679;45.190;5.722;2022-12-18T18:33:44;8.40;60.90
32173;DHT22;18679;45.190;5.722;2022-12-18T18:36:45;8.30;61.10
32173;DHT22;18679;45.190;5.722;2022-12-18T18:39:46;8.30;61.40
32173;DHT22;18679;45.190;5.722;2022-12-18T18:42:47;8.20;61.50
32173;DHT22;18679;45.190;5.722;2022-12-18T18:45:48;8.10;61.70
32173;DHT22;18679;45.190;5.722;2022-12-18T18:48:49;8.10;61.80
32173;DHT22;18679;45.190;5.722;2022-12-18T18:51:50;8.10;61.80
32173;DHT22;18679;45.190;5.722;2022-12-18T18:54:51;8.10;61.80
32173;DHT22;18679;45.190;5.722;2022-12-18T18:57:52;8.10;61.70
32173;DHT22;18679;45.190;5.722;2022-12-18T19:00:58;8.20;61.70
32173;DHT22;18679;45.190;5.722;2022-12-18T19:03:59;8.10;61.70
32173;DHT22;18679;45.190;5.722;2022-12-18T19:07:00;8.10;61.80
32173;DHT22;18679;45.190;5.722;2022-12-18T19:10:02;8.10;62.00
32173;DHT22;18679;45.190;5.722;2022-12-18T19:13:03;8.10;61.90
32173;DHT22;18679;45.190;5.722;2022-12-18T19:16:25;8.10;62.00
32173;DHT22;18679;45.190;5.722;2022-12-18T19:19:26;8.00;62.00
32173;DHT22;18679;45.190;5.722;2022-12-18T19:22:28;8.10;62.20
32173;DHT22;18679;45.190;5.722;2022-12-18T19:25:28;8.10;62.10
32173;DHT22;18679;45.190;5.722;2022-12-18T19:28:33;8.10;62.10
32173;DHT22;18679;45.190;5.722;2022-12-18T19:31:35;8.10;62.10
32173;DHT22;18679;45.190;5.722;2022-12-18T19:34:36;8.10;62.10
32173;DHT22;18679;45.190;5.722;2022-12-18T19:37:37;8.10;62.10
32173;DHT22;18679;45.190;5.722;2022-12-18T19:40:42;8.20;62.20
32173;DHT22;18679;45.190;5.722;2022-12-18T19:43:43;8.20;62.20
32173;DHT22;18679;45.190;5.722;2022-12-18T19:46:44;8.20;62.20
32173;DHT22;18679;45.190;5.722;2022-12-18T19:49:46;8.20;62.20
32173;DHT22;18679;45.190;5.722;2022-12-18T19:52:46;8.20;62.10
32173;DHT22;18679;45.190;5.722;2022-12-18T19:55:47;8.20;62.20
32173;DHT22;18679;45.190;5.722;2022-12-18T19:58:48;8.10;62.10
32173;DHT22;18679;45.190;5.722;2022-12-18T20:01:49;8.10;62.30
32173;DHT22;18679;45.190;5.722;2022-12-18T20:04:50;8.20;62.40
32173;DHT22;18679;45.190;5.722;2022-12-18T20:07:51;8.20;62.30
32173;DHT22;18679;45.190;5.722;2022-12-18T20:10:52;8.30;62.40
32173;DHT22;18679;45.190;5.722;2022-12-18T20:13:53;8.30;61.90
32173;DHT22;18679;45.190;5.722;2022-12-18T20:16:54;8.30;61.90
32173;DHT22;18679;45.190;5.722;2022-12-18T20:19:55;8.40;62.40
32173;DHT22;18679;45.190;5.722;2022-12-18T20:22:56;8.40;61.80
32173;DHT22;18679;45.190;5.722;2022-12-18T20:25:57;8.40;61.80
32173;DHT22;18679;45.190;5.722;2022-12-18T20:28:58;8.30;61.60
32173;DHT22;18679;45.190;5.722;2022-12-18T20:31:59;8.30;61.70
32173;DHT22;18679;45.190;5.722;2022-12-18T20:35:00;8.30;61.90
32173;DHT22;18679;45.190;5.722;2022-12-18T20:38:01;8.30;61.90
32173;DHT22;18679;45.190;5.722;2022-12-18T20:41:06;8.30;62.00
32173;DHT22;18679;45.190;5.722;2022-12-18T20:44:12;8.30;62.00
32173;DHT22;18679;45.190;5.722;2022-12-18T20:47:13;8.30;62.00
32173;DHT22;18679;45.190;5.722;2022-12-18T20:50:14;8.30;62.00
32173;DHT22;18679;45.190;5.722;2022-12-18T20:53:15;8.20;61.80
32173;DHT22;18679;45.190;5.722;2022-12-18T20:56:19;8.20;61.90
32173;DHT22;18679;45.190;5.722;2022-12-18T20:59:21;8.20;61.80
32173;DHT22;18679;45.190;5.722;2022-12-18T21:02:22;8.20;61.80
32173;DHT22;18679;45.190;5.722;2022-12-18T21:05:24;8.20;61.70
32173;DHT22;18679;45.190;5.722;2022-12-18T21:08:25;8.30;61.70
32173;DHT22;18679;45.190;5.722;2022-12-18T21:11:28;8.30;61.60
32173;DHT22;18679;45.190;5.722;2022-12-18T21:14:47;8.30;61.50
32173;DHT22;18679;45.190;5.722;2022-12-18T21:17:48;8.30;61.50
32173;DHT22;18679;45.190;5.722;2022-12-18T21:20:49;8.20;61.40
32173;DHT22;18679;45.190;5.722;2022-12-18T21:23:50;8.20;61.40
32173;DHT22;18679;45.190;5.722;2022-12-18T21:26:51;8.20;61.50
32173;DHT22;18679;45.190;5.722;2022-12-18T21:29:52;8.20;61.40
32173;DHT22;18679;45.190;5.722;2022-12-18T21:32:53;8.20;61.60
32173;DHT22;18679;45.190;5.722;2022-12-18T21:35:54;8.20;61.50
32173;DHT22;18679;45.190;5.722;2022-12-18T21:38:55;8.20;61.30
32173;DHT22;18679;45.190;5.722;2022-12-18T21:41:57;8.20;61.30